Portada
METAR-TAF:

METAR-TAF

Aeroports :

Aeroport de Gran Canària

Gran Canària, Espanya

latitud: 27-56N, longitud: 015-23W, altitud: 23 m

Observació

L'informe es va fer fa 28 minuts, a les 08:30 UTC
Vent 16 kt del Nord
Temperatura 27°C
Humitat 62%
Pressió 1013 hPa
Visibilitat 10 km o més
Escasses núvols a una alçada de 2000 ft

METAR: GCLP 240830Z 01016KT 9999 FEW020 27/19 Q1013 NOSIG

Hora: 09:58 (08:58 UTC)

Pronòstic

L'informe es va fer fa 58 minuts, a les 08:00 UTC
Pronòstic vàlid del 24 a les 09 UTC al 25 a les 09 UTC
Vent 27 kt del Nord/Nord-Est
Visibilitat 10 km o més
sense núvols per sota de 1500 mi sense presència de cumulonimbus.
Probabilitat 30% :
Temporalment
l' 24 a les 09 UTC al 24 a les 22 UTC
Vent 27 kt del Nord/Nord-Est amb ràfegues de 37 kt
Evolucionant progressivament
l' 24 a les 24 UTC al 25 a les 03 UTC
Vent 17 kt del Nord

TAF: GCLP 240800Z 2409/2509 02027KT CAVOK TX30/2414Z TN25/2505Z PROB30 TEMPO 2409/2422 02027G37KT BECMG 2424/2503 36017KT

Observacions i pronòstics meteorològics de més de 4000 aeroports (METAR i TAF).

Les estacions disponibles són els punts grocs i vermells al mapa.

Posi el ratolí al punt desitjat per veure el nom de l'estació.

Feu clic per veure les observacions i els pronòstics meteorològics.

Per canviar el mapa: feu clic els botons verds amb una creu de color negre per apropar; al botó verd amb un guió per allunyar la imatge; o en les fletxes verdes per a mapes adjacents.


METAR-TAF: